sensor_id;sensor_type;location;lat;lon;timestamp;temperature;humidity
11256;HTU21D;5685;52.384;13.420;2022-07-30T00:01:27;24.50;95.20
11256;HTU21D;5685;52.384;13.420;2022-07-30T00:04:29;24.40;95.20
11256;HTU21D;5685;52.384;13.420;2022-07-30T00:07:31;24.40;95.20
11256;HTU21D;5685;52.384;13.420;2022-07-30T00:10:35;24.40;95.40
11256;HTU21D;5685;52.384;13.420;2022-07-30T00:13:37;24.40;95.30
11256;HTU21D;5685;52.384;13.420;2022-07-30T00:16:40;24.40;95.30
11256;HTU21D;5685;52.384;13.420;2022-07-30T00:19:43;24.40;95.40
11256;HTU21D;5685;52.384;13.420;2022-07-30T00:22:45;24.40;95.40
11256;HTU21D;5685;52.384;13.420;2022-07-30T00:25:47;24.30;95.40
11256;HTU21D;5685;52.384;13.420;2022-07-30T00:28:49;24.30;95.50
11256;HTU21D;5685;52.384;13.420;2022-07-30T00:31:53;24.20;95.50
11256;HTU21D;5685;52.384;13.420;2022-07-30T00:34:55;24.20;95.70
11256;HTU21D;5685;52.384;13.420;2022-07-30T00:37:58;24.20;95.70
11256;HTU21D;5685;52.384;13.420;2022-07-30T00:41:00;24.20;95.90
11256;HTU21D;5685;52.384;13.420;2022-07-30T00:44:02;24.20;95.80
11256;HTU21D;5685;52.384;13.420;2022-07-30T00:47:07;24.20;95.90
11256;HTU21D;5685;52.384;13.420;2022-07-30T00:50:11;24.20;95.90
11256;HTU21D;5685;52.384;13.420;2022-07-30T00:53:14;24.20;96.00
11256;HTU21D;5685;52.384;13.420;2022-07-30T00:56:16;24.20;95.90
11256;HTU21D;5685;52.384;13.420;2022-07-30T00:59:18;24.20;95.90
11256;HTU21D;5685;52.384;13.420;2022-07-30T01:02:22;24.20;95.90
11256;HTU21D;5685;52.384;13.420;2022-07-30T01:05:24;24.10;96.00
11256;HTU21D;5685;52.384;13.420;2022-07-30T01:08:26;24.10;96.00
11256;HTU21D;5685;52.384;13.420;2022-07-30T01:11:34;24.10;96.10
11256;HTU21D;5685;52.384;13.420;2022-07-30T01:14:38;24.10;96.10
11256;HTU21D;5685;52.384;13.420;2022-07-30T01:17:42;24.10;96.20
11256;HTU21D;5685;52.384;13.420;2022-07-30T01:20:52;24.10;96.60
11256;HTU21D;5685;52.384;13.420;2022-07-30T01:24:11;24.10;96.20
11256;HTU21D;5685;52.384;13.420;2022-07-30T01:27:25;24.10;96.20
11256;HTU21D;5685;52.384;13.420;2022-07-30T01:34:15;24.00;96.30
11256;HTU21D;5685;52.384;13.420;2022-07-30T01:37:19;24.00;96.30
11256;HTU21D;5685;52.384;13.420;2022-07-30T01:40:23;24.00;96.40
11256;HTU21D;5685;52.384;13.420;2022-07-30T01:43:27;24.00;96.40
11256;HTU21D;5685;52.384;13.420;2022-07-30T01:46:32;23.90;96.50
11256;HTU21D;5685;52.384;13.420;2022-07-30T01:49:34;23.90;96.60
11256;HTU21D;5685;52.384;13.420;2022-07-30T01:52:37;23.80;96.70
11256;HTU21D;5685;52.384;13.420;2022-07-30T01:55:41;23.80;96.70
11256;HTU21D;5685;52.384;13.420;2022-07-30T01:58:48;23.80;96.90
11256;HTU21D;5685;52.384;13.420;2022-07-30T02:01:51;23.80;96.90
11256;HTU21D;5685;52.384;13.420;2022-07-30T02:04:54;23.90;96.90
11256;HTU21D;5685;52.384;13.420;2022-07-30T02:08:00;23.90;96.90
11256;HTU21D;5685;52.384;13.420;2022-07-30T02:11:07;23.90;97.00
11256;HTU21D;5685;52.384;13.420;2022-07-30T02:14:17;23.90;97.00
11256;HTU21D;5685;52.384;13.420;2022-07-30T02:17:25;23.90;96.90
11256;HTU21D;5685;52.384;13.420;2022-07-30T02:20:32;23.90;96.90
11256;HTU21D;5685;52.384;13.420;2022-07-30T02:23:38;23.90;97.00
11256;HTU21D;5685;52.384;13.420;2022-07-30T02:26:43;23.80;97.00
11256;HTU21D;5685;52.384;13.420;2022-07-30T02:29:49;23.80;97.10
11256;HTU21D;5685;52.384;13.420;2022-07-30T02:32:54;23.80;97.20
11256;HTU21D;5685;52.384;13.420;2022-07-30T02:35:59;23.90;97.60
11256;HTU21D;5685;52.384;13.420;2022-07-30T02:39:03;23.80;97.20
11256;HTU21D;5685;52.384;13.420;2022-07-30T02:42:06;23.80;97.20
11256;HTU21D;5685;52.384;13.420;2022-07-30T02:48:16;23.80;97.30
11256;HTU21D;5685;52.384;13.420;2022-07-30T02:51:21;23.80;97.30
11256;HTU21D;5685;52.384;13.420;2022-07-30T02:54:24;23.70;97.40
11256;HTU21D;5685;52.384;13.420;2022-07-30T02:57:27;23.70;97.40
11256;HTU21D;5685;52.384;13.420;2022-07-30T03:00:31;23.70;97.40
11256;HTU21D;5685;52.384;13.420;2022-07-30T03:03:36;23.70;97.40
11256;HTU21D;5685;52.384;13.420;2022-07-30T03:06:38;23.70;97.40
11256;HTU21D;5685;52.384;13.420;2022-07-30T03:09:42;23.70;97.60
11256;HTU21D;5685;52.384;13.420;2022-07-30T03:12:45;23.70;97.60
11256;HTU21D;5685;52.384;13.420;2022-07-30T03:15:49;23.70;97.60
11256;HTU21D;5685;52.384;13.420;2022-07-30T03:18:54;23.70;97.60
11256;HTU21D;5685;52.384;13.420;2022-07-30T03:21:59;23.70;97.50
11256;HTU21D;5685;52.384;13.420;2022-07-30T03:25:04;23.70;97.50
11256;HTU21D;5685;52.384;13.420;2022-07-30T03:28:07;23.70;97.60
11256;HTU21D;5685;52.384;13.420;2022-07-30T03:31:09;23.60;97.70
11256;HTU21D;5685;52.384;13.420;2022-07-30T03:34:14;23.60;97.70
11256;HTU21D;5685;52.384;13.420;2022-07-30T03:37:17;23.70;97.80
11256;HTU21D;5685;52.384;13.420;2022-07-30T03:40:20;23.60;97.90
11256;HTU21D;5685;52.384;13.420;2022-07-30T03:43:23;23.60;98.00
11256;HTU21D;5685;52.384;13.420;2022-07-30T03:46:26;23.60;97.80
11256;HTU21D;5685;52.384;13.420;2022-07-30T03:49:30;23.70;98.00
11256;HTU21D;5685;52.384;13.420;2022-07-30T03:52:33;23.60;97.90
11256;HTU21D;5685;52.384;13.420;2022-07-30T03:55:36;23.60;98.00
11256;HTU21D;5685;52.384;13.420;2022-07-30T03:58:39;23.60;98.20
11256;HTU21D;5685;52.384;13.420;2022-07-30T04:01:41;23.60;98.30
11256;HTU21D;5685;52.384;13.420;2022-07-30T04:04:45;23.60;98.20
11256;HTU21D;5685;52.384;13.420;2022-07-30T04:07:47;23.60;98.30
11256;HTU21D;5685;52.384;13.420;2022-07-30T04:10:50;23.60;98.40
11256;HTU21D;5685;52.384;13.420;2022-07-30T04:13:52;23.60;98.50
11256;HTU21D;5685;52.384;13.420;2022-07-30T04:16:59;23.70;98.60
11256;HTU21D;5685;52.384;13.420;2022-07-30T04:20:10;23.70;98.60
11256;HTU21D;5685;52.384;13.420;2022-07-30T04:23:14;23.70;98.60
11256;HTU21D;5685;52.384;13.420;2022-07-30T04:26:17;23.70;98.60
11256;HTU21D;5685;52.384;13.420;2022-07-30T04:29:20;23.80;98.60
11256;HTU21D;5685;52.384;13.420;2022-07-30T04:32:23;23.80;98.60
11256;HTU21D;5685;52.384;13.420;2022-07-30T04:35:31;23.80;98.60
11256;HTU21D;5685;52.384;13.420;2022-07-30T04:38:34;23.80;98.50
11256;HTU21D;5685;52.384;13.420;2022-07-30T04:41:36;23.80;98.50
11256;HTU21D;5685;52.384;13.420;2022-07-30T04:44:39;23.80;98.40
11256;HTU21D;5685;52.384;13.420;2022-07-30T04:47:42;23.80;98.40
11256;HTU21D;5685;52.384;13.420;2022-07-30T04:50:48;23.80;98.40
11256;HTU21D;5685;52.384;13.420;2022-07-30T04:53:52;23.90;98.40
11256;HTU21D;5685;52.384;13.420;2022-07-30T04:56:55;23.90;98.40
11256;HTU21D;5685;52.384;13.420;2022-07-30T04:59:57;23.90;98.40
11256;HTU21D;5685;52.384;13.420;2022-07-30T05:03:01;23.90;98.40
11256;HTU21D;5685;52.384;13.420;2022-07-30T05:06:07;23.90;98.40
11256;HTU21D;5685;52.384;13.420;2022-07-30T05:09:10;23.90;98.40
11256;HTU21D;5685;52.384;13.420;2022-07-30T05:12:14;23.90;98.40
11256;HTU21D;5685;52.384;13.420;2022-07-30T05:15:16;23.90;98.40
11256;HTU21D;5685;52.384;13.420;2022-07-30T05:18:19;23.90;98.40
11256;HTU21D;5685;52.384;13.420;2022-07-30T05:21:23;23.90;98.40
11256;HTU21D;5685;52.384;13.420;2022-07-30T05:24:25;23.90;98.40
11256;HTU21D;5685;52.384;13.420;2022-07-30T05:27:27;24.00;98.40
11256;HTU21D;5685;52.384;13.420;2022-07-30T05:30:29;24.00;98.40
11256;HTU21D;5685;52.384;13.420;2022-07-30T05:33:32;24.00;98.50
11256;HTU21D;5685;52.384;13.420;2022-07-30T05:36:35;24.00;98.40
11256;HTU21D;5685;52.384;13.420;2022-07-30T05:39:38;24.00;98.40
11256;HTU21D;5685;52.384;13.420;2022-07-30T05:42:40;24.00;98.50
11256;HTU21D;5685;52.384;13.420;2022-07-30T05:45:42;24.00;98.50
11256;HTU21D;5685;52.384;13.420;2022-07-30T05:48:44;24.00;98.50
11256;HTU21D;5685;52.384;13.420;2022-07-30T05:51:48;24.00;98.50
11256;HTU21D;5685;52.384;13.420;2022-07-30T05:54:50;24.00;98.50
11256;HTU21D;5685;52.384;13.420;2022-07-30T05:57:52;24.00;98.60
11256;HTU21D;5685;52.384;13.420;2022-07-30T06:00:54;24.00;98.60
11256;HTU21D;5685;52.384;13.420;2022-07-30T06:03:57;24.00;98.60
11256;HTU21D;5685;52.384;13.420;2022-07-30T06:07:01;24.00;98.70
11256;HTU21D;5685;52.384;13.420;2022-07-30T06:10:03;24.00;98.70
11256;HTU21D;5685;52.384;13.420;2022-07-30T06:13:06;24.00;98.70
11256;HTU21D;5685;52.384;13.420;2022-07-30T06:16:09;24.00;98.70
11256;HTU21D;5685;52.384;13.420;2022-07-30T06:19:11;24.00;98.70
11256;HTU21D;5685;52.384;13.420;2022-07-30T06:22:15;24.10;98.80
11256;HTU21D;5685;52.384;13.420;2022-07-30T06:25:17;24.10;98.80
11256;HTU21D;5685;52.384;13.420;2022-07-30T06:28:19;24.10;98.80
11256;HTU21D;5685;52.384;13.420;2022-07-30T06:31:21;24.10;98.80
11256;HTU21D;5685;52.384;13.420;2022-07-30T06:34:24;24.10;98.80
11256;HTU21D;5685;52.384;13.420;2022-07-30T06:37:27;24.10;98.80
11256;HTU21D;5685;52.384;13.420;2022-07-30T06:40:30;24.10;98.80
11256;HTU21D;5685;52.384;13.420;2022-07-30T06:43:32;24.10;98.80
11256;HTU21D;5685;52.384;13.420;2022-07-30T06:46:35;24.10;98.40
11256;HTU21D;5685;52.384;13.420;2022-07-30T06:49:37;24.00;98.40
11256;HTU21D;5685;52.384;13.420;2022-07-30T06:52:41;24.00;98.30
11256;HTU21D;5685;52.384;13.420;2022-07-30T06:55:43;24.00;98.40
11256;HTU21D;5685;52.384;13.420;2022-07-30T06:58:45;24.00;98.50
11256;HTU21D;5685;52.384;13.420;2022-07-30T07:01:47;23.90;98.50
11256;HTU21D;5685;52.384;13.420;2022-07-30T07:04:53;23.90;98.60
11256;HTU21D;5685;52.384;13.420;2022-07-30T07:07:57;23.90;98.60
11256;HTU21D;5685;52.384;13.420;2022-07-30T07:10:59;23.90;98.70
11256;HTU21D;5685;52.384;13.420;2022-07-30T07:14:02;23.90;98.80
11256;HTU21D;5685;52.384;13.420;2022-07-30T07:17:04;23.90;98.90
11256;HTU21D;5685;52.384;13.420;2022-07-30T07:20:07;23.90;99.00
11256;HTU21D;5685;52.384;13.420;2022-07-30T07:23:11;23.90;98.90
11256;HTU21D;5685;52.384;13.420;2022-07-30T07:26:14;23.90;99.00
11256;HTU21D;5685;52.384;13.420;2022-07-30T07:29:16;23.90;99.00
11256;HTU21D;5685;52.384;13.420;2022-07-30T07:32:19;23.90;99.00
11256;HTU21D;5685;52.384;13.420;2022-07-30T07:35:21;23.80;99.00
11256;HTU21D;5685;52.384;13.420;2022-07-30T07:38:24;23.80;99.00
11256;HTU21D;5685;52.384;13.420;2022-07-30T07:41:27;23.80;99.00
11256;HTU21D;5685;52.384;13.420;2022-07-30T07:44:29;23.80;99.20
11256;HTU21D;5685;52.384;13.420;2022-07-30T07:47:42;23.80;99.20
11256;HTU21D;5685;52.384;13.420;2022-07-30T07:50:45;23.90;99.20
11256;HTU21D;5685;52.384;13.420;2022-07-30T07:53:48;23.90;99.10
11256;HTU21D;5685;52.384;13.420;2022-07-30T07:56:51;23.90;99.30
11256;HTU21D;5685;52.384;13.420;2022-07-30T07:59:56;23.90;99.10
11256;HTU21D;5685;52.384;13.420;2022-07-30T08:02:58;23.90;99.20
11256;HTU21D;5685;52.384;13.420;2022-07-30T08:06:01;23.80;99.10
11256;HTU21D;5685;52.384;13.420;2022-07-30T08:09:04;23.80;99.00
11256;HTU21D;5685;52.384;13.420;2022-07-30T08:12:07;23.80;99.00
11256;HTU21D;5685;52.384;13.420;2022-07-30T08:15:10;23.80;99.20
11256;HTU21D;5685;52.384;13.420;2022-07-30T08:18:12;23.80;99.30
11256;HTU21D;5685;52.384;13.420;2022-07-30T08:21:14;23.80;99.40
11256;HTU21D;5685;52.384;13.420;2022-07-30T08:24:18;23.80;99.40
11256;HTU21D;5685;52.384;13.420;2022-07-30T08:27:20;23.80;99.40
11256;HTU21D;5685;52.384;13.420;2022-07-30T08:30:22;23.80;99.30
11256;HTU21D;5685;52.384;13.420;2022-07-30T08:33:24;23.80;99.50
11256;HTU21D;5685;52.384;13.420;2022-07-30T08:36:26;23.80;99.70
11256;HTU21D;5685;52.384;13.420;2022-07-30T08:39:30;23.80;99.50
11256;HTU21D;5685;52.384;13.420;2022-07-30T08:42:33;23.80;99.50
11256;HTU21D;5685;52.384;13.420;2022-07-30T08:45:36;23.80;99.50
11256;HTU21D;5685;52.384;13.420;2022-07-30T08:48:41;23.80;99.50
11256;HTU21D;5685;52.384;13.420;2022-07-30T08:51:44;23.80;99.50
11256;HTU21D;5685;52.384;13.420;2022-07-30T08:54:47;23.80;99.60
11256;HTU21D;5685;52.384;13.420;2022-07-30T08:57:50;23.80;99.60
11256;HTU21D;5685;52.384;13.420;2022-07-30T09:00:52;23.80;99.60
11256;HTU21D;5685;52.384;13.420;2022-07-30T09:03:55;23.70;99.40
11256;HTU21D;5685;52.384;13.420;2022-07-30T09:06:57;23.70;99.40
11256;HTU21D;5685;52.384;13.420;2022-07-30T09:10:00;23.70;99.50
11256;HTU21D;5685;52.384;13.420;2022-07-30T09:13:03;23.70;99.60
11256;HTU21D;5685;52.384;13.420;2022-07-30T09:16:06;23.70;99.80
11256;HTU21D;5685;52.384;13.420;2022-07-30T09:19:13;23.70;99.80
11256;HTU21D;5685;52.384;13.420;2022-07-30T09:22:16;23.70;99.80
11256;HTU21D;5685;52.384;13.420;2022-07-30T09:25:36;23.70;99.80
11256;HTU21D;5685;52.384;13.420;2022-07-30T09:28:39;23.70;99.90
11256;HTU21D;5685;52.384;13.420;2022-07-30T09:31:52;23.70;99.80
11256;HTU21D;5685;52.384;13.420;2022-07-30T09:34:55;23.70;99.90
11256;HTU21D;5685;52.384;13.420;2022-07-30T09:37:58;23.70;99.90
11256;HTU21D;5685;52.384;13.420;2022-07-30T09:41:02;23.70;99.90
11256;HTU21D;5685;52.384;13.420;2022-07-30T09:44:05;23.70;99.90
11256;HTU21D;5685;52.384;13.420;2022-07-30T09:47:07;23.70;99.90
11256;HTU21D;5685;52.384;13.420;2022-07-30T09:50:11;23.70;99.90
11256;HTU21D;5685;52.384;13.420;2022-07-30T09:53:15;23.70;99.90
11256;HTU21D;5685;52.384;13.420;2022-07-30T09:56:27;23.70;99.90
11256;HTU21D;5685;52.384;13.420;2022-07-30T09:59:31;23.70;99.90
11256;HTU21D;5685;52.384;13.420;2022-07-30T10:02:33;23.70;99.90
11256;HTU21D;5685;52.384;13.420;2022-07-30T10:05:36;23.70;99.90
11256;HTU21D;5685;52.384;13.420;2022-07-30T10:08:40;23.60;99.90
11256;HTU21D;5685;52.384;13.420;2022-07-30T10:11:45;23.70;99.90
11256;HTU21D;5685;52.384;13.420;2022-07-30T10:14:48;23.70;99.90
11256;HTU21D;5685;52.384;13.420;2022-07-30T10:17:54;23.70;99.90
11256;HTU21D;5685;52.384;13.420;2022-07-30T10:20:58;23.70;99.90
11256;HTU21D;5685;52.384;13.420;2022-07-30T10:24:01;23.70;99.90
11256;HTU21D;5685;52.384;13.420;2022-07-30T10:27:07;23.80;99.90
11256;HTU21D;5685;52.384;13.420;2022-07-30T10:30:11;23.80;99.90
11256;HTU21D;5685;52.384;13.420;2022-07-30T10:33:13;23.70;99.90
11256;HTU21D;5685;52.384;13.420;2022-07-30T10:36:16;23.70;99.90
11256;HTU21D;5685;52.384;13.420;2022-07-30T10:39:23;23.70;99.90
11256;HTU21D;5685;52.384;13.420;2022-07-30T10:42:43;23.70;99.90
11256;HTU21D;5685;52.384;13.420;2022-07-30T10:46:07;23.80;99.90
11256;HTU21D;5685;52.384;13.420;2022-07-30T10:49:13;23.70;99.90
11256;HTU21D;5685;52.384;13.420;2022-07-30T10:52:42;23.70;99.90
11256;HTU21D;5685;52.384;13.420;2022-07-30T10:56:11;23.70;99.90
11256;HTU21D;5685;52.384;13.420;2022-07-30T10:59:14;23.80;99.90
11256;HTU21D;5685;52.384;13.420;2022-07-30T11:02:17;23.80;99.90
11256;HTU21D;5685;52.384;13.420;2022-07-30T11:05:24;23.80;99.90
11256;HTU21D;5685;52.384;13.420;2022-07-30T11:08:33;23.80;99.90
11256;HTU21D;5685;52.384;13.420;2022-07-30T11:11:44;23.80;99.90
11256;HTU21D;5685;52.384;13.420;2022-07-30T11:14:55;23.80;99.90
11256;HTU21D;5685;52.384;13.420;2022-07-30T11:18:03;23.80;99.90
11256;HTU21D;5685;52.384;13.420;2022-07-30T11:21:16;23.90;99.90
11256;HTU21D;5685;52.384;13.420;2022-07-30T11:24:41;23.90;99.90
11256;HTU21D;5685;52.384;13.420;2022-07-30T11:27:47;23.90;99.90
11256;HTU21D;5685;52.384;13.420;2022-07-30T11:30:49;23.90;99.90
11256;HTU21D;5685;52.384;13.420;2022-07-30T11:33:56;24.00;99.90
11256;HTU21D;5685;52.384;13.420;2022-07-30T11:37:57;24.00;99.90
11256;HTU21D;5685;52.384;13.420;2022-07-30T11:41:09;24.00;99.90
11256;HTU21D;5685;52.384;13.420;2022-07-30T11:44:28;24.00;99.90
11256;HTU21D;5685;52.384;13.420;2022-07-30T11:47:30;24.00;99.90
11256;HTU21D;5685;52.384;13.420;2022-07-30T11:50:34;24.10;99.90
11256;HTU21D;5685;52.384;13.420;2022-07-30T11:53:36;24.10;99.90
11256;HTU21D;5685;52.384;13.420;2022-07-30T11:56:47;24.10;99.90
11256;HTU21D;5685;52.384;13.420;2022-07-30T11:59:54;24.10;99.50
11256;HTU21D;5685;52.384;13.420;2022-07-30T12:02:57;24.10;99.30
11256;HTU21D;5685;52.384;13.420;2022-07-30T12:06:03;24.10;98.70
11256;HTU21D;5685;52.384;13.420;2022-07-30T12:09:05;24.10;98.70
11256;HTU21D;5685;52.384;13.420;2022-07-30T12:12:19;24.10;98.70
11256;HTU21D;5685;52.384;13.420;2022-07-30T12:15:31;24.10;98.90
11256;HTU21D;5685;52.384;13.420;2022-07-30T12:18:34;24.10;99.00
11256;HTU21D;5685;52.384;13.420;2022-07-30T12:21:36;24.20;99.10
11256;HTU21D;5685;52.384;13.420;2022-07-30T12:24:38;24.20;99.10
11256;HTU21D;5685;52.384;13.420;2022-07-30T12:27:44;24.20;99.20
11256;HTU21D;5685;52.384;13.420;2022-07-30T12:30:48;24.20;99.20
11256;HTU21D;5685;52.384;13.420;2022-07-30T12:33:51;24.20;99.00
11256;HTU21D;5685;52.384;13.420;2022-07-30T12:37:06;24.20;98.30
11256;HTU21D;5685;52.384;13.420;2022-07-30T12:40:10;24.20;98.60
11256;HTU21D;5685;52.384;13.420;2022-07-30T12:46:23;24.20;98.90
11256;HTU21D;5685;52.384;13.420;2022-07-30T12:49:28;24.30;99.00
11256;HTU21D;5685;52.384;13.420;2022-07-30T12:52:32;24.30;99.10
11256;HTU21D;5685;52.384;13.420;2022-07-30T12:55:37;24.30;99.20
11256;HTU21D;5685;52.384;13.420;2022-07-30T12:58:41;24.30;99.20
11256;HTU21D;5685;52.384;13.420;2022-07-30T13:01:45;24.30;99.20
11256;HTU21D;5685;52.384;13.420;2022-07-30T13:04:49;24.30;99.30
11256;HTU21D;5685;52.384;13.420;2022-07-30T13:07:54;24.30;99.30
11256;HTU21D;5685;52.384;13.420;2022-07-30T13:10:59;24.30;99.30
11256;HTU21D;5685;52.384;13.420;2022-07-30T13:14:02;24.30;99.40
11256;HTU21D;5685;52.384;13.420;2022-07-30T13:17:06;24.30;99.40
11256;HTU21D;5685;52.384;13.420;2022-07-30T13:20:10;24.30;99.50
11256;HTU21D;5685;52.384;13.420;2022-07-30T13:23:13;24.30;99.50
11256;HTU21D;5685;52.384;13.420;2022-07-30T13:26:16;24.40;99.60
11256;HTU21D;5685;52.384;13.420;2022-07-30T13:29:19;24.40;99.60
11256;HTU21D;5685;52.384;13.420;2022-07-30T13:32:22;24.40;99.60
11256;HTU21D;5685;52.384;13.420;2022-07-30T13:35:25;24.40;99.60
11256;HTU21D;5685;52.384;13.420;2022-07-30T13:38:27;24.40;99.70
11256;HTU21D;5685;52.384;13.420;2022-07-30T13:41:30;24.40;99.70
11256;HTU21D;5685;52.384;13.420;2022-07-30T13:44:32;24.40;99.70
11256;HTU21D;5685;52.384;13.420;2022-07-30T13:47:36;24.40;99.80
11256;HTU21D;5685;52.384;13.420;2022-07-30T13:50:39;24.40;99.80
11256;HTU21D;5685;52.384;13.420;2022-07-30T13:53:41;24.40;99.80
11256;HTU21D;5685;52.384;13.420;2022-07-30T13:56:43;24.50;99.90
11256;HTU21D;5685;52.384;13.420;2022-07-30T13:59:45;24.50;99.90
11256;HTU21D;5685;52.384;13.420;2022-07-30T14:02:48;24.50;99.90
11256;HTU21D;5685;52.384;13.420;2022-07-30T14:05:51;24.50;99.90
11256;HTU21D;5685;52.384;13.420;2022-07-30T14:08:53;24.50;99.90
11256;HTU21D;5685;52.384;13.420;2022-07-30T14:11:55;24.50;99.90
11256;HTU21D;5685;52.384;13.420;2022-07-30T14:14:57;24.50;99.90
11256;HTU21D;5685;52.384;13.420;2022-07-30T14:18:01;24.60;99.90
11256;HTU21D;5685;52.384;13.420;2022-07-30T14:24:06;24.60;99.90
11256;HTU21D;5685;52.384;13.420;2022-07-30T14:27:10;24.60;99.90
11256;HTU21D;5685;52.384;13.420;2022-07-30T14:30:12;24.60;99.90
11256;HTU21D;5685;52.384;13.420;2022-07-30T14:33:16;24.60;99.90
11256;HTU21D;5685;52.384;13.420;2022-07-30T14:36:18;24.60;99.90
11256;HTU21D;5685;52.384;13.420;2022-07-30T14:39:20;24.60;99.90
11256;HTU21D;5685;52.384;13.420;2022-07-30T14:42:22;24.60;99.90
11256;HTU21D;5685;52.384;13.420;2022-07-30T14:45:25;24.60;99.90
11256;HTU21D;5685;52.384;13.420;2022-07-30T14:48:29;24.70;99.90
11256;HTU21D;5685;52.384;13.420;2022-07-30T14:51:31;24.70;99.90
11256;HTU21D;5685;52.384;13.420;2022-07-30T14:54:33;24.70;99.90
11256;HTU21D;5685;52.384;13.420;2022-07-30T14:57:36;24.70;99.90
11256;HTU21D;5685;52.384;13.420;2022-07-30T15:00:38;24.70;99.90
11256;HTU21D;5685;52.384;13.420;2022-07-30T15:03:42;24.70;99.90
11256;HTU21D;5685;52.384;13.420;2022-07-30T15:06:44;24.70;99.90
11256;HTU21D;5685;52.384;13.420;2022-07-30T15:09:46;24.70;99.90
11256;HTU21D;5685;52.384;13.420;2022-07-30T15:12:49;24.80;99.90
11256;HTU21D;5685;52.384;13.420;2022-07-30T15:15:51;24.80;99.90
11256;HTU21D;5685;52.384;13.420;2022-07-30T15:18:55;24.80;99.90
11256;HTU21D;5685;52.384;13.420;2022-07-30T15:21:57;24.80;99.90
11256;HTU21D;5685;52.384;13.420;2022-07-30T15:25:01;24.80;99.90
11256;HTU21D;5685;52.384;13.420;2022-07-30T15:28:03;24.80;99.90
11256;HTU21D;5685;52.384;13.420;2022-07-30T15:31:05;24.90;99.90
11256;HTU21D;5685;52.384;13.420;2022-07-30T15:34:09;24.90;99.90
11256;HTU21D;5685;52.384;13.420;2022-07-30T15:37:12;24.90;99.90
11256;HTU21D;5685;52.384;13.420;2022-07-30T15:40:15;24.90;99.90
11256;HTU21D;5685;52.384;13.420;2022-07-30T15:43:17;24.90;99.90
11256;HTU21D;5685;52.384;13.420;2022-07-30T15:46:19;24.90;99.90
11256;HTU21D;5685;52.384;13.420;2022-07-30T15:49:23;24.90;99.90
11256;HTU21D;5685;52.384;13.420;2022-07-30T15:52:25;24.90;99.90
11256;HTU21D;5685;52.384;13.420;2022-07-30T15:55:27;24.90;99.90
11256;HTU21D;5685;52.384;13.420;2022-07-30T15:58:29;25.00;99.90
11256;HTU21D;5685;52.384;13.420;2022-07-30T16:01:32;25.00;99.90
11256;HTU21D;5685;52.384;13.420;2022-07-30T16:04:36;25.00;99.90
11256;HTU21D;5685;52.384;13.420;2022-07-30T16:07:38;25.00;99.90
11256;HTU21D;5685;52.384;13.420;2022-07-30T16:10:41;25.00;99.90
11256;HTU21D;5685;52.384;13.420;2022-07-30T16:13:43;25.00;99.90
11256;HTU21D;5685;52.384;13.420;2022-07-30T16:16:45;25.00;99.90
11256;HTU21D;5685;52.384;13.420;2022-07-30T16:19:49;25.00;99.90
11256;HTU21D;5685;52.384;13.420;2022-07-30T16:22:51;25.00;99.90
11256;HTU21D;5685;52.384;13.420;2022-07-30T16:25:53;25.10;99.90
11256;HTU21D;5685;52.384;13.420;2022-07-30T16:28:55;25.10;99.90
11256;HTU21D;5685;52.384;13.420;2022-07-30T16:31:57;25.10;99.90
11256;HTU21D;5685;52.384;13.420;2022-07-30T16:35:01;25.10;99.90
11256;HTU21D;5685;52.384;13.420;2022-07-30T16:38:04;25.10;99.90
11256;HTU21D;5685;52.384;13.420;2022-07-30T16:41:06;25.20;99.90
11256;HTU21D;5685;52.384;13.420;2022-07-30T16:44:10;25.20;99.90
11256;HTU21D;5685;52.384;13.420;2022-07-30T16:47:12;25.20;99.90
11256;HTU21D;5685;52.384;13.420;2022-07-30T16:50:16;25.20;99.90
11256;HTU21D;5685;52.384;13.420;2022-07-30T16:53:18;25.20;99.90
11256;HTU21D;5685;52.384;13.420;2022-07-30T16:56:21;25.20;99.90
11256;HTU21D;5685;52.384;13.420;2022-07-30T16:59:23;25.20;99.90
11256;HTU21D;5685;52.384;13.420;2022-07-30T17:02:25;25.20;99.90
11256;HTU21D;5685;52.384;13.420;2022-07-30T17:05:29;25.30;99.90
11256;HTU21D;5685;52.384;13.420;2022-07-30T17:08:31;25.30;99.90
11256;HTU21D;5685;52.384;13.420;2022-07-30T17:11:33;25.30;99.90
11256;HTU21D;5685;52.384;13.420;2022-07-30T17:14:35;25.30;99.90
11256;HTU21D;5685;52.384;13.420;2022-07-30T17:17:37;25.30;99.90
11256;HTU21D;5685;52.384;13.420;2022-07-30T17:20:41;25.30;99.90
11256;HTU21D;5685;52.384;13.420;2022-07-30T17:23:44;25.30;99.90
11256;HTU21D;5685;52.384;13.420;2022-07-30T17:26:46;25.30;99.90
11256;HTU21D;5685;52.384;13.420;2022-07-30T17:29:48;25.30;99.90
11256;HTU21D;5685;52.384;13.420;2022-07-30T17:32:50;25.30;99.90
11256;HTU21D;5685;52.384;13.420;2022-07-30T17:35:54;25.30;99.90
11256;HTU21D;5685;52.384;13.420;2022-07-30T17:38:56;25.30;99.90
11256;HTU21D;5685;52.384;13.420;2022-07-30T17:41:58;25.40;99.40
11256;HTU21D;5685;52.384;13.420;2022-07-30T17:45:01;25.40;98.80
11256;HTU21D;5685;52.384;13.420;2022-07-30T17:48:05;25.40;98.90
11256;HTU21D;5685;52.384;13.420;2022-07-30T17:51:09;25.40;98.70
11256;HTU21D;5685;52.384;13.420;2022-07-30T17:54:11;25.40;98.60
11256;HTU21D;5685;52.384;13.420;2022-07-30T17:57:13;25.40;98.40
11256;HTU21D;5685;52.384;13.420;2022-07-30T18:00:16;25.40;98.60
11256;HTU21D;5685;52.384;13.420;2022-07-30T18:03:18;25.40;98.40
11256;HTU21D;5685;52.384;13.420;2022-07-30T18:06:21;25.40;98.50
11256;HTU21D;5685;52.384;13.420;2022-07-30T18:09:24;25.40;98.60
11256;HTU21D;5685;52.384;13.420;2022-07-30T18:12:26;25.50;98.80
11256;HTU21D;5685;52.384;13.420;2022-07-30T18:15:28;25.40;98.80
11256;HTU21D;5685;52.384;13.420;2022-07-30T18:18:30;25.50;99.00
11256;HTU21D;5685;52.384;13.420;2022-07-30T18:21:35;25.40;99.10
11256;HTU21D;5685;52.384;13.420;2022-07-30T18:24:37;25.50;99.10
11256;HTU21D;5685;52.384;13.420;2022-07-30T18:27:39;25.50;98.50
11256;HTU21D;5685;52.384;13.420;2022-07-30T18:30:42;25.40;98.30
11256;HTU21D;5685;52.384;13.420;2022-07-30T18:33:44;25.40;98.50
11256;HTU21D;5685;52.384;13.420;2022-07-30T18:36:49;25.40;98.70
11256;HTU21D;5685;52.384;13.420;2022-07-30T18:39:52;25.40;98.70
11256;HTU21D;5685;52.384;13.420;2022-07-30T18:42:54;25.40;98.50
11256;HTU21D;5685;52.384;13.420;2022-07-30T18:45:57;25.40;98.60
11256;HTU21D;5685;52.384;13.420;2022-07-30T18:49:01;25.40;98.70
11256;HTU21D;5685;52.384;13.420;2022-07-30T18:52:06;25.40;98.80
11256;HTU21D;5685;52.384;13.420;2022-07-30T18:55:09;25.40;98.70
11256;HTU21D;5685;52.384;13.420;2022-07-30T18:58:11;25.50;98.70
11256;HTU21D;5685;52.384;13.420;2022-07-30T19:01:14;25.50;98.60
11256;HTU21D;5685;52.384;13.420;2022-07-30T19:04:17;25.50;98.50
11256;HTU21D;5685;52.384;13.420;2022-07-30T19:07:21;25.50;98.50
11256;HTU21D;5685;52.384;13.420;2022-07-30T19:10:23;25.50;98.50
11256;HTU21D;5685;52.384;13.420;2022-07-30T19:13:26;25.50;98.60
11256;HTU21D;5685;52.384;13.420;2022-07-30T19:16:30;25.40;98.70